»·PEaware :: N119BK KPRC-KGCN

N119BK :: KPRC-KGCN

FLIGHT INFORMATION

Flight Status: Arrived
Operator: Privately registered:
United States
More flights under this callsign
Pilot: Moussa A. (33317)
Aircraft: SOCATA TBM-900
(TBM9)
More flights by this aircraft type
Origin: KPRC Love
United States
Destination: KGCN Grand Canyon Natl Park
United States
More flights between these airports :: More routes between these airports
Route: DRK V257 GCN
File this flight plan on PilotEdge
Remarks:
Altitude:
(Current/Filed)
17,000ft
Speed:
(Current/Filed)
300kts
Departed: 18-Jun-23 08:41 AM
Arrived: 18-Jun-23 09:13 AM
Distance/Time
Traveled:
79nm/0:32
Distance/Time
To Go:
Arrived

Flight Plot

Page will automatically refresh every two minutes.

Flight plan parsing failed; only flown route is shown


Map Options




Map Legend


Flown Route
Filed Route
Departure Airport
Arrival Airport
Navaid (VOR, NDB)
Fix

Horizontal Profiles

Position Reports

Time Latitude Longitude Heading Altitude Ground
Speed
18-Jun-23 08:12 34.648071 -112.421310 323 5022ft 0kts
18-Jun-23 08:13 34.648071 -112.421310 323 5022ft 0kts
18-Jun-23 08:14 34.648071 -112.421310 323 5022ft 0kts
18-Jun-23 08:15 34.648071 -112.421310 323 5022ft 0kts
18-Jun-23 08:16 34.648071 -112.421310 323 5022ft 0kts
18-Jun-23 08:20 34.648071 -112.421310 323 5022ft 0kts
18-Jun-23 08:21 34.648071 -112.421310 323 5022ft 0kts
18-Jun-23 08:22 34.648071 -112.421310 323 5022ft 0kts
18-Jun-23 08:23 34.648071 -112.421310 323 5022ft 0kts
18-Jun-23 08:24 34.648071 -112.421310 323 5022ft 0kts
18-Jun-23 08:25 34.648071 -112.421310 323 5022ft 0kts
18-Jun-23 08:26 34.648071 -112.421310 323 5022ft 0kts
18-Jun-23 08:27 34.648071 -112.421310 323 5022ft 0kts
18-Jun-23 08:28 34.648071 -112.421311 323 5022ft 0kts
18-Jun-23 08:29 34.648072 -112.421311 323 5022ft 0kts
18-Jun-23 08:30 34.648071 -112.421311 323 5022ft 0kts
18-Jun-23 08:31 34.648099 -112.421335 325 5022ft 2kts
18-Jun-23 08:32 34.649316 -112.423079 343 5010ft 9kts
18-Jun-23 08:33 34.651873 -112.420499 40 5003ft 9kts
18-Jun-23 08:34 34.655430 -112.416730 41 4983ft 25kts
18-Jun-23 08:35 34.660298 -112.410886 41 4953ft 20kts
18-Jun-23 08:36 34.661165 -112.410128 353 4949ft 0kts
18-Jun-23 08:37 34.661165 -112.410128 353 4949ft 0kts
18-Jun-23 08:38 34.661165 -112.410128 353 4949ft 0kts
18-Jun-23 08:39 34.662053 -112.411195 297 4948ft 9kts
18-Jun-23 08:40 34.652225 -112.422052 222 5263ft 114kts
18-Jun-23 08:41 34.621079 -112.448269 210 7172ft 153kts
18-Jun-23 08:42 34.586243 -112.475012 210 9658ft 151kts
18-Jun-23 08:43 34.542483 -112.508452 210 10012ft 206kts
18-Jun-23 08:44 34.496041 -112.543864 210 9992ft 189kts
18-Jun-23 08:45 34.487611 -112.589939 342 11166ft 196kts
18-Jun-23 08:46 34.538043 -112.570158 25 13020ft 211kts
18-Jun-23 08:47 34.600049 -112.536488 25 13008ft 263kts
18-Jun-23 08:48 34.668434 -112.499068 25 13002ft 273kts
18-Jun-23 08:49 34.728438 -112.478390 3 15672ft 212kts
18-Jun-23 08:50 34.789547 -112.474765 3 17028ft 242kts
18-Jun-23 08:51 34.864695 -112.470044 3 17011ft 289kts
18-Jun-23 08:52 34.946391 -112.464853 3 17015ft 295kts
18-Jun-23 08:53 35.028457 -112.459586 3 17034ft 294kts
18-Jun-23 08:54 35.110368 -112.454318 3 16926ft 296kts
18-Jun-23 08:55 35.195921 -112.448816 3 15412ft 299kts
18-Jun-23 08:56 35.279271 -112.443433 3 13881ft 293kts
18-Jun-23 08:57 35.359942 -112.439175 0 12375ft 288kts
18-Jun-23 08:58 35.439648 -112.437005 4 10862ft 286kts
18-Jun-23 08:59 35.517985 -112.432107 2 10014ft 271kts
18-Jun-23 09:00 35.590905 -112.427207 3 10010ft 255kts
18-Jun-23 09:01 35.661279 -112.421699 3 10003ft 250kts
18-Jun-23 09:02 35.719713 -112.390029 37 9995ft 225kts
18-Jun-23 09:03 35.769467 -112.343058 46 9408ft 226kts
18-Jun-23 09:04 35.814770 -112.291828 42 8993ft 211kts
18-Jun-23 09:05 35.857939 -112.246440 44 8967ft 184kts
18-Jun-23 09:06 35.895014 -112.207755 37 7888ft 182kts
18-Jun-23 09:07 35.928344 -112.172064 48 6999ft 147kts
18-Jun-23 09:08 35.964037 -112.156127 16 7011ft 143kts
18-Jun-23 09:09 35.996721 -112.127018 59 7516ft 141kts
18-Jun-23 09:10 35.981607 -112.116168 216 7139ft 93kts
18-Jun-23 09:11 35.964089 -112.134605 220 6770ft 81kts
18-Jun-23 09:12 35.953557 -112.144322 116 6583ft 10kts
18-Jun-23 09:13 35.953529 -112.144209 100 6583ft 0kts
18-Jun-23 09:14 35.956661 -112.140659 40 6598ft 27kts
18-Jun-23 09:15 35.959249 -112.137396 130 6610ft 1kts
18-Jun-23 09:16 35.959068 -112.137445 219 6611ft 0kts
18-Jun-23 09:17 35.959068 -112.137446 219 6611ft 0kts

Navigation Log

Ident Type
Flight plan parsing failed, navigation log unavailable